Strona główna
METAR-TAF:

METAR-TAF

Lotnisko :

Makkovik, Nowa Fundlandia i Labrador, Kanada

Szerokość geograficzna: 55-05N, Długość geograficzna: 059-11W, wysokość: 71 m

Aktualna obserwacja pogody

Raport powstał 3 godziny i 37 minut temu, godzina 21:00 UTC
Wiatr 17 kt od zachód w porywach dochodzący do 23 kt
Temperatura -23°C
Wilgotność 52%
Ciśnienie 1009 hPa
Widzialność: 24.1 km
Mało chmury na wysokości 2200 ft
zamieć niska śnieżna

METAR: CYFT 222100Z 28017G23KT 15SM DRSN FEW022 M23/M30 A2979 RMK CU1 TR CU LAST STFD OBS/NEXT231000Z SLP097

czas: 20:37 (00:37 UTC)


TAF: brakujący

Obserwacja i prognoza pogody dla ponad 4000 lotnisk (raport METAR i TAF).

Dostępne stacje oznaczono żółtymi i czerwonymi punktami na mapie.

Najedź kursorem aby zobaczyć nazwę stacji.

Kliknij aby zobaczyć obserwacje i prognozy pogody.

Aby zmienić mapę: kliknij na zielony przycisk z czarnym krzyżykiem, aby powiększyć; na zielony przycisk z myślnikiem, aby pomniejszyć; na zielone strzałki, aby przejść do map sąsiednich.


METAR-TAF: